sensor_id;sensor_type;location;lat;lon;timestamp;P1;durP1;ratioP1;P2;durP2;ratioP2
26151;SDS011;13907;53.154;8.202;2022-10-16T00:00:31;1.00;;;0.90;;
26151;SDS011;13907;53.154;8.202;2022-10-16T00:02:58;4.77;;;0.90;;
26151;SDS011;13907;53.154;8.202;2022-10-16T00:05:25;1.87;;;1.40;;
26151;SDS011;13907;53.154;8.202;2022-10-16T00:07:53;1.90;;;1.30;;
26151;SDS011;13907;53.154;8.202;2022-10-16T00:10:20;3.67;;;1.07;;
26151;SDS011;13907;53.154;8.202;2022-10-16T00:12:47;1.80;;;0.90;;
26151;SDS011;13907;53.154;8.202;2022-10-16T00:15:14;1.60;;;1.20;;
26151;SDS011;13907;53.154;8.202;2022-10-16T00:17:42;1.43;;;0.97;;
26151;SDS011;13907;53.154;8.202;2022-10-16T00:20:09;1.30;;;0.93;;
26151;SDS011;13907;53.154;8.202;2022-10-16T00:22:36;3.23;;;1.03;;
26151;SDS011;13907;53.154;8.202;2022-10-16T00:25:04;4.00;;;1.17;;
26151;SDS011;13907;53.154;8.202;2022-10-16T00:27:32;3.23;;;1.20;;
26151;SDS011;13907;53.154;8.202;2022-10-16T00:29:59;2.43;;;0.80;;
26151;SDS011;13907;53.154;8.202;2022-10-16T00:32:26;0.97;;;0.80;;
26151;SDS011;13907;53.154;8.202;2022-10-16T00:34:53;1.33;;;0.87;;
26151;SDS011;13907;53.154;8.202;2022-10-16T00:37:20;1.13;;;0.60;;
26151;SDS011;13907;53.154;8.202;2022-10-16T00:39:48;1.47;;;1.03;;
26151;SDS011;13907;53.154;8.202;2022-10-16T00:42:17;0.93;;;0.73;;
26151;SDS011;13907;53.154;8.202;2022-10-16T00:44:46;1.20;;;0.77;;
26151;SDS011;13907;53.154;8.202;2022-10-16T00:47:15;2.00;;;1.00;;
26151;SDS011;13907;53.154;8.202;2022-10-16T00:49:44;0.70;;;0.60;;
26151;SDS011;13907;53.154;8.202;2022-10-16T00:52:12;1.20;;;1.10;;
26151;SDS011;13907;53.154;8.202;2022-10-16T00:54:40;1.07;;;0.97;;
26151;SDS011;13907;53.154;8.202;2022-10-16T00:57:07;1.63;;;0.67;;
26151;SDS011;13907;53.154;8.202;2022-10-16T00:59:36;2.90;;;0.73;;
26151;SDS011;13907;53.154;8.202;2022-10-16T01:02:04;1.70;;;1.20;;
26151;SDS011;13907;53.154;8.202;2022-10-16T01:04:32;1.47;;;1.00;;
26151;SDS011;13907;53.154;8.202;2022-10-16T01:07:02;4.53;;;1.07;;
26151;SDS011;13907;53.154;8.202;2022-10-16T01:09:32;0.60;;;0.60;;
26151;SDS011;13907;53.154;8.202;2022-10-16T01:12:04;2.37;;;1.00;;
26151;SDS011;13907;53.154;8.202;2022-10-16T01:14:35;1.33;;;0.90;;
26151;SDS011;13907;53.154;8.202;2022-10-16T01:17:08;6.23;;;1.47;;
26151;SDS011;13907;53.154;8.202;2022-10-16T01:19:41;0.90;;;0.90;;
26151;SDS011;13907;53.154;8.202;2022-10-16T01:22:11;0.97;;;0.93;;
26151;SDS011;13907;53.154;8.202;2022-10-16T01:24:39;0.83;;;0.80;;
26151;SDS011;13907;53.154;8.202;2022-10-16T01:27:11;1.00;;;0.60;;
26151;SDS011;13907;53.154;8.202;2022-10-16T01:29:40;1.47;;;1.37;;
26151;SDS011;13907;53.154;8.202;2022-10-16T01:32:10;0.87;;;0.87;;
26151;SDS011;13907;53.154;8.202;2022-10-16T01:34:42;0.80;;;0.80;;
26151;SDS011;13907;53.154;8.202;2022-10-16T01:37:12;1.27;;;1.10;;
26151;SDS011;13907;53.154;8.202;2022-10-16T01:39:40;1.47;;;0.60;;
26151;SDS011;13907;53.154;8.202;2022-10-16T01:42:11;0.70;;;0.70;;
26151;SDS011;13907;53.154;8.202;2022-10-16T01:44:39;0.77;;;0.77;;
26151;SDS011;13907;53.154;8.202;2022-10-16T01:47:08;1.13;;;0.80;;
26151;SDS011;13907;53.154;8.202;2022-10-16T01:49:37;0.63;;;0.63;;
26151;SDS011;13907;53.154;8.202;2022-10-16T01:52:06;1.07;;;0.80;;
26151;SDS011;13907;53.154;8.202;2022-10-16T01:54:35;2.57;;;0.93;;
26151;SDS011;13907;53.154;8.202;2022-10-16T01:57:03;0.77;;;0.60;;
26151;SDS011;13907;53.154;8.202;2022-10-16T01:59:33;0.60;;;0.60;;
26151;SDS011;13907;53.154;8.202;2022-10-16T02:02:04;0.93;;;0.70;;
26151;SDS011;13907;53.154;8.202;2022-10-16T02:04:33;2.47;;;0.60;;
26151;SDS011;13907;53.154;8.202;2022-10-16T02:07:01;1.10;;;1.10;;
26151;SDS011;13907;53.154;8.202;2022-10-16T02:09:28;1.63;;;0.80;;
26151;SDS011;13907;53.154;8.202;2022-10-16T02:11:56;1.40;;;0.77;;
26151;SDS011;13907;53.154;8.202;2022-10-16T02:14:27;2.10;;;0.87;;
26151;SDS011;13907;53.154;8.202;2022-10-16T02:16:56;0.60;;;0.60;;
26151;SDS011;13907;53.154;8.202;2022-10-16T02:19:23;0.67;;;0.67;;
26151;SDS011;13907;53.154;8.202;2022-10-16T02:21:51;0.73;;;0.73;;
26151;SDS011;13907;53.154;8.202;2022-10-16T02:24:22;0.77;;;0.70;;
26151;SDS011;13907;53.154;8.202;2022-10-16T02:26:51;1.13;;;0.80;;
26151;SDS011;13907;53.154;8.202;2022-10-16T02:29:20;0.50;;;0.50;;
26151;SDS011;13907;53.154;8.202;2022-10-16T02:31:50;1.67;;;1.20;;
26151;SDS011;13907;53.154;8.202;2022-10-16T02:34:19;0.87;;;0.50;;
26151;SDS011;13907;53.154;8.202;2022-10-16T02:36:48;0.70;;;0.70;;
26151;SDS011;13907;53.154;8.202;2022-10-16T02:39:16;0.70;;;0.70;;
26151;SDS011;13907;53.154;8.202;2022-10-16T02:41:43;0.70;;;0.70;;
26151;SDS011;13907;53.154;8.202;2022-10-16T02:44:10;2.23;;;0.90;;
26151;SDS011;13907;53.154;8.202;2022-10-16T02:46:37;1.00;;;0.90;;
26151;SDS011;13907;53.154;8.202;2022-10-16T02:49:04;0.70;;;0.70;;
26151;SDS011;13907;53.154;8.202;2022-10-16T02:51:33;0.60;;;0.60;;
26151;SDS011;13907;53.154;8.202;2022-10-16T02:54:01;2.33;;;0.77;;
26151;SDS011;13907;53.154;8.202;2022-10-16T02:56:28;1.03;;;0.50;;
26151;SDS011;13907;53.154;8.202;2022-10-16T02:58:56;0.43;;;0.43;;
26151;SDS011;13907;53.154;8.202;2022-10-16T03:01:23;2.07;;;0.60;;
26151;SDS011;13907;53.154;8.202;2022-10-16T03:03:50;1.10;;;0.70;;
26151;SDS011;13907;53.154;8.202;2022-10-16T03:06:17;1.63;;;0.83;;
26151;SDS011;13907;53.154;8.202;2022-10-16T03:08:46;1.00;;;0.73;;
26151;SDS011;13907;53.154;8.202;2022-10-16T03:11:13;0.60;;;0.60;;
26151;SDS011;13907;53.154;8.202;2022-10-16T03:13:40;0.53;;;0.53;;
26151;SDS011;13907;53.154;8.202;2022-10-16T03:16:07;0.83;;;0.83;;
26151;SDS011;13907;53.154;8.202;2022-10-16T03:18:34;0.50;;;0.50;;
26151;SDS011;13907;53.154;8.202;2022-10-16T03:21:01;1.33;;;0.70;;
26151;SDS011;13907;53.154;8.202;2022-10-16T03:23:29;1.00;;;0.63;;
26151;SDS011;13907;53.154;8.202;2022-10-16T03:25:57;1.30;;;1.00;;
26151;SDS011;13907;53.154;8.202;2022-10-16T03:28:25;1.13;;;0.90;;
26151;SDS011;13907;53.154;8.202;2022-10-16T03:30:52;0.87;;;0.43;;
26151;SDS011;13907;53.154;8.202;2022-10-16T03:33:19;2.90;;;1.77;;
26151;SDS011;13907;53.154;8.202;2022-10-16T03:35:50;0.57;;;0.57;;
26151;SDS011;13907;53.154;8.202;2022-10-16T03:38:17;2.93;;;0.80;;
26151;SDS011;13907;53.154;8.202;2022-10-16T03:40:45;2.67;;;0.60;;
26151;SDS011;13907;53.154;8.202;2022-10-16T03:43:13;2.40;;;1.10;;
26151;SDS011;13907;53.154;8.202;2022-10-16T03:45:40;2.33;;;1.30;;
26151;SDS011;13907;53.154;8.202;2022-10-16T03:48:07;2.07;;;0.77;;
26151;SDS011;13907;53.154;8.202;2022-10-16T03:50:34;1.63;;;0.83;;
26151;SDS011;13907;53.154;8.202;2022-10-16T03:53:01;1.57;;;0.97;;
26151;SDS011;13907;53.154;8.202;2022-10-16T03:55:28;4.20;;;1.37;;
26151;SDS011;13907;53.154;8.202;2022-10-16T03:57:55;2.00;;;0.80;;
26151;SDS011;13907;53.154;8.202;2022-10-16T04:00:24;0.83;;;0.83;;
26151;SDS011;13907;53.154;8.202;2022-10-16T04:02:51;1.23;;;1.10;;
26151;SDS011;13907;53.154;8.202;2022-10-16T04:05:18;2.30;;;1.67;;
26151;SDS011;13907;53.154;8.202;2022-10-16T04:07:45;1.37;;;1.27;;
26151;SDS011;13907;53.154;8.202;2022-10-16T04:10:12;1.30;;;1.03;;
26151;SDS011;13907;53.154;8.202;2022-10-16T04:12:39;2.90;;;1.03;;
26151;SDS011;13907;53.154;8.202;2022-10-16T04:15:07;2.10;;;1.20;;
26151;SDS011;13907;53.154;8.202;2022-10-16T04:17:36;2.83;;;0.90;;
26151;SDS011;13907;53.154;8.202;2022-10-16T04:20:03;0.70;;;0.70;;
26151;SDS011;13907;53.154;8.202;2022-10-16T04:22:31;2.17;;;1.17;;
26151;SDS011;13907;53.154;8.202;2022-10-16T04:24:58;3.30;;;1.73;;
26151;SDS011;13907;53.154;8.202;2022-10-16T04:27:25;1.27;;;0.90;;
26151;SDS011;13907;53.154;8.202;2022-10-16T04:29:53;1.30;;;1.20;;
26151;SDS011;13907;53.154;8.202;2022-10-16T04:32:20;2.80;;;1.43;;
26151;SDS011;13907;53.154;8.202;2022-10-16T04:34:48;1.63;;;1.20;;
26151;SDS011;13907;53.154;8.202;2022-10-16T04:37:16;1.50;;;1.40;;
26151;SDS011;13907;53.154;8.202;2022-10-16T04:39:43;1.97;;;1.63;;
26151;SDS011;13907;53.154;8.202;2022-10-16T04:42:10;2.27;;;1.23;;
26151;SDS011;13907;53.154;8.202;2022-10-16T04:44:37;1.47;;;1.30;;
26151;SDS011;13907;53.154;8.202;2022-10-16T04:47:04;2.67;;;1.70;;
26151;SDS011;13907;53.154;8.202;2022-10-16T04:49:31;1.27;;;0.93;;
26151;SDS011;13907;53.154;8.202;2022-10-16T04:52:00;3.23;;;1.60;;
26151;SDS011;13907;53.154;8.202;2022-10-16T04:54:27;1.63;;;1.27;;
26151;SDS011;13907;53.154;8.202;2022-10-16T04:56:54;2.30;;;2.07;;
26151;SDS011;13907;53.154;8.202;2022-10-16T04:59:21;1.47;;;1.37;;
26151;SDS011;13907;53.154;8.202;2022-10-16T05:01:48;3.40;;;1.53;;
26151;SDS011;13907;53.154;8.202;2022-10-16T05:04:16;2.37;;;1.83;;
26151;SDS011;13907;53.154;8.202;2022-10-16T05:06:43;4.47;;;2.20;;
26151;SDS011;13907;53.154;8.202;2022-10-16T05:09:11;1.77;;;1.43;;
26151;SDS011;13907;53.154;8.202;2022-10-16T05:11:38;2.83;;;2.00;;
26151;SDS011;13907;53.154;8.202;2022-10-16T05:14:05;5.23;;;1.57;;
26151;SDS011;13907;53.154;8.202;2022-10-16T05:16:33;2.17;;;1.40;;
26151;SDS011;13907;53.154;8.202;2022-10-16T05:19:00;4.10;;;1.83;;
26151;SDS011;13907;53.154;8.202;2022-10-16T05:21:27;4.17;;;1.97;;
26151;SDS011;13907;53.154;8.202;2022-10-16T05:23:54;3.53;;;1.67;;
26151;SDS011;13907;53.154;8.202;2022-10-16T05:26:22;3.93;;;1.90;;
26151;SDS011;13907;53.154;8.202;2022-10-16T05:28:49;2.20;;;2.00;;
26151;SDS011;13907;53.154;8.202;2022-10-16T05:31:16;5.57;;;2.10;;
26151;SDS011;13907;53.154;8.202;2022-10-16T05:33:44;5.13;;;1.90;;
26151;SDS011;13907;53.154;8.202;2022-10-16T05:36:11;4.23;;;1.93;;
26151;SDS011;13907;53.154;8.202;2022-10-16T05:38:38;3.30;;;1.90;;
26151;SDS011;13907;53.154;8.202;2022-10-16T05:41:05;2.97;;;2.13;;
26151;SDS011;13907;53.154;8.202;2022-10-16T05:43:33;1.90;;;1.70;;
26151;SDS011;13907;53.154;8.202;2022-10-16T05:46:01;2.40;;;2.20;;
26151;SDS011;13907;53.154;8.202;2022-10-16T05:48:29;2.83;;;2.40;;
26151;SDS011;13907;53.154;8.202;2022-10-16T05:50:56;2.33;;;2.00;;
26151;SDS011;13907;53.154;8.202;2022-10-16T05:53:24;6.00;;;2.37;;
26151;SDS011;13907;53.154;8.202;2022-10-16T05:55:51;2.23;;;1.60;;
26151;SDS011;13907;53.154;8.202;2022-10-16T05:58:18;2.00;;;1.63;;
26151;SDS011;13907;53.154;8.202;2022-10-16T06:00:53;4.47;;;1.87;;
26151;SDS011;13907;53.154;8.202;2022-10-16T06:03:20;3.57;;;1.60;;
26151;SDS011;13907;53.154;8.202;2022-10-16T06:05:48;1.70;;;1.60;;
26151;SDS011;13907;53.154;8.202;2022-10-16T06:08:15;4.20;;;1.77;;
26151;SDS011;13907;53.154;8.202;2022-10-16T06:10:42;3.97;;;1.87;;
26151;SDS011;13907;53.154;8.202;2022-10-16T06:13:09;2.27;;;1.90;;
26151;SDS011;13907;53.154;8.202;2022-10-16T06:15:37;2.87;;;1.87;;
26151;SDS011;13907;53.154;8.202;2022-10-16T06:18:08;3.13;;;1.90;;
26151;SDS011;13907;53.154;8.202;2022-10-16T06:20:35;3.00;;;2.00;;
26151;SDS011;13907;53.154;8.202;2022-10-16T06:23:02;2.20;;;1.67;;
26151;SDS011;13907;53.154;8.202;2022-10-16T06:25:30;2.00;;;1.90;;
26151;SDS011;13907;53.154;8.202;2022-10-16T06:27:57;2.80;;;1.73;;
26151;SDS011;13907;53.154;8.202;2022-10-16T06:30:24;3.40;;;1.47;;
26151;SDS011;13907;53.154;8.202;2022-10-16T06:32:51;2.10;;;1.77;;
26151;SDS011;13907;53.154;8.202;2022-10-16T06:35:19;2.30;;;2.03;;
26151;SDS011;13907;53.154;8.202;2022-10-16T06:37:46;1.60;;;1.30;;
26151;SDS011;13907;53.154;8.202;2022-10-16T06:40:14;4.00;;;1.90;;
26151;SDS011;13907;53.154;8.202;2022-10-16T06:42:41;1.77;;;1.57;;
26151;SDS011;13907;53.154;8.202;2022-10-16T06:45:08;7.80;;;1.97;;
26151;SDS011;13907;53.154;8.202;2022-10-16T06:47:36;2.87;;;1.70;;
26151;SDS011;13907;53.154;8.202;2022-10-16T06:50:03;2.07;;;1.50;;
26151;SDS011;13907;53.154;8.202;2022-10-16T06:52:32;3.77;;;1.50;;
26151;SDS011;13907;53.154;8.202;2022-10-16T06:55:00;1.43;;;1.20;;
26151;SDS011;13907;53.154;8.202;2022-10-16T06:57:27;2.30;;;1.73;;
26151;SDS011;13907;53.154;8.202;2022-10-16T06:59:54;2.50;;;1.53;;
26151;SDS011;13907;53.154;8.202;2022-10-16T07:02:22;2.23;;;1.20;;
26151;SDS011;13907;53.154;8.202;2022-10-16T07:04:49;2.03;;;1.60;;
26151;SDS011;13907;53.154;8.202;2022-10-16T07:07:16;2.17;;;1.63;;
26151;SDS011;13907;53.154;8.202;2022-10-16T07:09:44;2.23;;;1.90;;
26151;SDS011;13907;53.154;8.202;2022-10-16T07:12:11;2.87;;;1.27;;
26151;SDS011;13907;53.154;8.202;2022-10-16T07:14:38;3.30;;;1.77;;
26151;SDS011;13907;53.154;8.202;2022-10-16T07:17:05;1.50;;;1.20;;
26151;SDS011;13907;53.154;8.202;2022-10-16T07:19:33;1.30;;;1.20;;
26151;SDS011;13907;53.154;8.202;2022-10-16T07:22:00;1.70;;;1.60;;
26151;SDS011;13907;53.154;8.202;2022-10-16T07:24:28;2.57;;;1.47;;
26151;SDS011;13907;53.154;8.202;2022-10-16T07:26:56;1.53;;;1.20;;
26151;SDS011;13907;53.154;8.202;2022-10-16T07:29:23;1.43;;;1.30;;
26151;SDS011;13907;53.154;8.202;2022-10-16T07:31:50;2.03;;;1.30;;
26151;SDS011;13907;53.154;8.202;2022-10-16T07:34:18;1.40;;;1.30;;
26151;SDS011;13907;53.154;8.202;2022-10-16T07:36:47;2.30;;;1.23;;
26151;SDS011;13907;53.154;8.202;2022-10-16T07:39:14;1.93;;;1.73;;
26151;SDS011;13907;53.154;8.202;2022-10-16T07:41:41;2.83;;;1.20;;
26151;SDS011;13907;53.154;8.202;2022-10-16T07:44:09;2.10;;;1.43;;
26151;SDS011;13907;53.154;8.202;2022-10-16T07:46:36;2.67;;;1.27;;
26151;SDS011;13907;53.154;8.202;2022-10-16T07:49:04;1.80;;;1.30;;
26151;SDS011;13907;53.154;8.202;2022-10-16T07:51:31;1.80;;;1.50;;
26151;SDS011;13907;53.154;8.202;2022-10-16T07:53:58;1.97;;;1.30;;
26151;SDS011;13907;53.154;8.202;2022-10-16T07:56:25;1.97;;;1.10;;
26151;SDS011;13907;53.154;8.202;2022-10-16T07:58:52;3.73;;;1.20;;
26151;SDS011;13907;53.154;8.202;2022-10-16T08:01:20;3.53;;;0.80;;
26151;SDS011;13907;53.154;8.202;2022-10-16T08:03:48;1.80;;;1.27;;
26151;SDS011;13907;53.154;8.202;2022-10-16T08:06:15;2.73;;;1.47;;
26151;SDS011;13907;53.154;8.202;2022-10-16T08:08:43;1.33;;;1.23;;
26151;SDS011;13907;53.154;8.202;2022-10-16T08:11:10;1.37;;;0.93;;
26151;SDS011;13907;53.154;8.202;2022-10-16T08:13:37;3.63;;;1.50;;
26151;SDS011;13907;53.154;8.202;2022-10-16T08:16:04;0.60;;;0.60;;
26151;SDS011;13907;53.154;8.202;2022-10-16T08:18:34;0.98;;;0.93;;
26151;SDS011;13907;53.154;8.202;2022-10-16T08:21:01;0.80;;;0.80;;
26151;SDS011;13907;53.154;8.202;2022-10-16T08:23:29;2.15;;;1.40;;
26151;SDS011;13907;53.154;8.202;2022-10-16T08:26:01;0.80;;;0.70;;
26151;SDS011;13907;53.154;8.202;2022-10-16T08:28:28;1.52;;;0.93;;
26151;SDS011;13907;53.154;8.202;2022-10-16T08:30:55;0.82;;;0.82;;
26151;SDS011;13907;53.154;8.202;2022-10-16T08:33:22;3.80;;;1.17;;
26151;SDS011;13907;53.154;8.202;2022-10-16T08:35:51;2.85;;;0.93;;
26151;SDS011;13907;53.154;8.202;2022-10-16T08:38:19;3.75;;;0.80;;
26151;SDS011;13907;53.154;8.202;2022-10-16T08:40:46;5.28;;;1.02;;
26151;SDS011;13907;53.154;8.202;2022-10-16T08:43:21;0.68;;;0.57;;
26151;SDS011;13907;53.154;8.202;2022-10-16T08:45:59;0.60;;;0.60;;
26151;SDS011;13907;53.154;8.202;2022-10-16T08:48:34;0.90;;;0.60;;
26151;SDS011;13907;53.154;8.202;2022-10-16T08:51:04;4.88;;;0.70;;
26151;SDS011;13907;53.154;8.202;2022-10-16T08:53:33;1.73;;;0.60;;
26151;SDS011;13907;53.154;8.202;2022-10-16T08:56:03;2.10;;;0.85;;
26151;SDS011;13907;53.154;8.202;2022-10-16T08:58:30;1.85;;;0.68;;
26151;SDS011;13907;53.154;8.202;2022-10-16T09:00:58;0.70;;;0.60;;
26151;SDS011;13907;53.154;8.202;2022-10-16T09:03:40;0.98;;;0.88;;
26151;SDS011;13907;53.154;8.202;2022-10-16T09:06:12;0.52;;;0.43;;
26151;SDS011;13907;53.154;8.202;2022-10-16T09:08:46;1.75;;;1.17;;
26151;SDS011;13907;53.154;8.202;2022-10-16T09:11:17;2.50;;;0.80;;
26151;SDS011;13907;53.154;8.202;2022-10-16T09:13:48;5.93;;;0.80;;
26151;SDS011;13907;53.154;8.202;2022-10-16T09:16:18;2.08;;;0.80;;
26151;SDS011;13907;53.154;8.202;2022-10-16T09:18:48;1.15;;;0.52;;
26151;SDS011;13907;53.154;8.202;2022-10-16T09:21:19;0.55;;;0.43;;
26151;SDS011;13907;53.154;8.202;2022-10-16T09:23:48;1.15;;;0.60;;
26151;SDS011;13907;53.154;8.202;2022-10-16T09:26:15;3.03;;;0.80;;
26151;SDS011;13907;53.154;8.202;2022-10-16T09:28:44;0.88;;;0.52;;
26151;SDS011;13907;53.154;8.202;2022-10-16T09:31:13;0.45;;;0.45;;
26151;SDS011;13907;53.154;8.202;2022-10-16T09:33:42;1.92;;;0.68;;
26151;SDS011;13907;53.154;8.202;2022-10-16T09:36:10;1.58;;;0.43;;
26151;SDS011;13907;53.154;8.202;2022-10-16T09:38:40;0.82;;;0.70;;
26151;SDS011;13907;53.154;8.202;2022-10-16T09:41:13;0.50;;;0.50;;
26151;SDS011;13907;53.154;8.202;2022-10-16T09:43:42;1.30;;;0.60;;
26151;SDS011;13907;53.154;8.202;2022-10-16T09:46:21;1.23;;;0.77;;
26151;SDS011;13907;53.154;8.202;2022-10-16T09:48:49;3.13;;;0.57;;
26151;SDS011;13907;53.154;8.202;2022-10-16T09:51:18;4.38;;;0.82;;
26151;SDS011;13907;53.154;8.202;2022-10-16T09:53:48;1.40;;;0.82;;
26151;SDS011;13907;53.154;8.202;2022-10-16T09:56:21;0.35;;;0.35;;
26151;SDS011;13907;53.154;8.202;2022-10-16T09:58:49;0.93;;;0.80;;
26151;SDS011;13907;53.154;8.202;2022-10-16T10:01:17;1.92;;;0.40;;
26151;SDS011;13907;53.154;8.202;2022-10-16T10:03:44;0.75;;;0.50;;
26151;SDS011;13907;53.154;8.202;2022-10-16T10:06:21;0.95;;;0.57;;
26151;SDS011;13907;53.154;8.202;2022-10-16T10:09:00;1.55;;;0.80;;
26151;SDS011;13907;53.154;8.202;2022-10-16T10:11:41;0.95;;;0.30;;
26151;SDS011;13907;53.154;8.202;2022-10-16T10:14:14;0.30;;;0.30;;
26151;SDS011;13907;53.154;8.202;2022-10-16T10:16:42;0.47;;;0.43;;
26151;SDS011;13907;53.154;8.202;2022-10-16T10:19:12;1.10;;;0.68;;
26151;SDS011;13907;53.154;8.202;2022-10-16T10:21:40;0.38;;;0.35;;
26151;SDS011;13907;53.154;8.202;2022-10-16T10:24:10;0.40;;;0.40;;
26151;SDS011;13907;53.154;8.202;2022-10-16T10:26:37;0.55;;;0.50;;
26151;SDS011;13907;53.154;8.202;2022-10-16T10:29:07;0.40;;;0.40;;
26151;SDS011;13907;53.154;8.202;2022-10-16T10:31:38;2.65;;;0.40;;
26151;SDS011;13907;53.154;8.202;2022-10-16T10:34:12;0.50;;;0.40;;
26151;SDS011;13907;53.154;8.202;2022-10-16T10:36:41;2.08;;;0.82;;
26151;SDS011;13907;53.154;8.202;2022-10-16T10:39:14;1.23;;;1.08;;
26151;SDS011;13907;53.154;8.202;2022-10-16T10:44:30;1.48;;;0.57;;
26151;SDS011;13907;53.154;8.202;2022-10-16T10:47:03;1.40;;;0.45;;
26151;SDS011;13907;53.154;8.202;2022-10-16T10:49:44;0.25;;;0.25;;
26151;SDS011;13907;53.154;8.202;2022-10-16T10:52:24;3.25;;;0.60;;
26151;SDS011;13907;53.154;8.202;2022-10-16T10:54:55;1.45;;;0.45;;
26151;SDS011;13907;53.154;8.202;2022-10-16T10:57:25;2.03;;;0.50;;
26151;SDS011;13907;53.154;8.202;2022-10-16T10:59:58;2.75;;;0.60;;
26151;SDS011;13907;53.154;8.202;2022-10-16T11:02:32;0.45;;;0.30;;
26151;SDS011;13907;53.154;8.202;2022-10-16T11:07:47;1.27;;;0.60;;
26151;SDS011;13907;53.154;8.202;2022-10-16T11:10:18;1.85;;;0.55;;
26151;SDS011;13907;53.154;8.202;2022-10-16T11:12:47;0.73;;;0.57;;
26151;SDS011;13907;53.154;8.202;2022-10-16T11:15:18;2.47;;;0.55;;
26151;SDS011;13907;53.154;8.202;2022-10-16T11:17:47;0.40;;;0.40;;
26151;SDS011;13907;53.154;8.202;2022-10-16T11:20:16;0.68;;;0.47;;
26151;SDS011;13907;53.154;8.202;2022-10-16T11:22:45;6.38;;;0.73;;
26151;SDS011;13907;53.154;8.202;2022-10-16T11:25:15;2.55;;;0.60;;
26151;SDS011;13907;53.154;8.202;2022-10-16T11:27:45;1.40;;;0.60;;
26151;SDS011;13907;53.154;8.202;2022-10-16T11:30:14;0.25;;;0.25;;
26151;SDS011;13907;53.154;8.202;2022-10-16T11:32:47;1.60;;;0.40;;
26151;SDS011;13907;53.154;8.202;2022-10-16T11:35:17;1.25;;;0.40;;
26151;SDS011;13907;53.154;8.202;2022-10-16T11:37:46;0.80;;;0.43;;
26151;SDS011;13907;53.154;8.202;2022-10-16T11:40:19;3.85;;;1.23;;
26151;SDS011;13907;53.154;8.202;2022-10-16T11:45:26;1.27;;;0.30;;
26151;SDS011;13907;53.154;8.202;2022-10-16T11:47:58;0.45;;;0.20;;
26151;SDS011;13907;53.154;8.202;2022-10-16T11:50:28;3.00;;;0.55;;
26151;SDS011;13907;53.154;8.202;2022-10-16T11:52:57;1.20;;;0.60;;
26151;SDS011;13907;53.154;8.202;2022-10-16T11:55:28;1.45;;;0.47;;
26151;SDS011;13907;53.154;8.202;2022-10-16T11:57:58;1.50;;;0.38;;
26151;SDS011;13907;53.154;8.202;2022-10-16T12:00:30;4.40;;;0.82;;
26151;SDS011;13907;53.154;8.202;2022-10-16T12:02:59;1.52;;;0.73;;
26151;SDS011;13907;53.154;8.202;2022-10-16T12:05:29;0.40;;;0.35;;
26151;SDS011;13907;53.154;8.202;2022-10-16T12:08:02;0.47;;;0.40;;
26151;SDS011;13907;53.154;8.202;2022-10-16T12:10:31;3.15;;;0.70;;
26151;SDS011;13907;53.154;8.202;2022-10-16T12:13:03;3.97;;;0.57;;
26151;SDS011;13907;53.154;8.202;2022-10-16T12:15:32;0.60;;;0.40;;
26151;SDS011;13907;53.154;8.202;2022-10-16T12:18:00;2.85;;;0.55;;
26151;SDS011;13907;53.154;8.202;2022-10-16T12:20:28;2.95;;;0.70;;
26151;SDS011;13907;53.154;8.202;2022-10-16T12:22:58;1.85;;;0.60;;
26151;SDS011;13907;53.154;8.202;2022-10-16T12:25:26;1.67;;;0.70;;
26151;SDS011;13907;53.154;8.202;2022-10-16T12:27:54;3.28;;;0.82;;
26151;SDS011;13907;53.154;8.202;2022-10-16T12:30:22;3.67;;;0.88;;
26151;SDS011;13907;53.154;8.202;2022-10-16T12:32:55;0.90;;;0.47;;
26151;SDS011;13907;53.154;8.202;2022-10-16T12:35:23;5.18;;;0.90;;
26151;SDS011;13907;53.154;8.202;2022-10-16T12:37:51;2.00;;;0.88;;
26151;SDS011;13907;53.154;8.202;2022-10-16T12:40:26;2.05;;;0.60;;
26151;SDS011;13907;53.154;8.202;2022-10-16T12:42:54;2.15;;;0.55;;
26151;SDS011;13907;53.154;8.202;2022-10-16T12:45:25;3.38;;;0.73;;
26151;SDS011;13907;53.154;8.202;2022-10-16T12:47:55;0.90;;;0.40;;
26151;SDS011;13907;53.154;8.202;2022-10-16T12:50:27;2.55;;;0.45;;
26151;SDS011;13907;53.154;8.202;2022-10-16T12:52:55;2.60;;;0.57;;
26151;SDS011;13907;53.154;8.202;2022-10-16T12:55:22;1.70;;;0.50;;
26151;SDS011;13907;53.154;8.202;2022-10-16T12:58:02;3.17;;;0.80;;
26151;SDS011;13907;53.154;8.202;2022-10-16T13:00:32;0.77;;;0.38;;
26151;SDS011;13907;53.154;8.202;2022-10-16T13:03:11;1.60;;;0.30;;
26151;SDS011;13907;53.154;8.202;2022-10-16T13:05:46;0.40;;;0.40;;
26151;SDS011;13907;53.154;8.202;2022-10-16T13:08:20;3.65;;;0.95;;
26151;SDS011;13907;53.154;8.202;2022-10-16T13:10:55;3.75;;;0.60;;
26151;SDS011;13907;53.154;8.202;2022-10-16T13:13:31;3.03;;;0.45;;
26151;SDS011;13907;53.154;8.202;2022-10-16T13:16:04;5.05;;;1.33;;
26151;SDS011;13907;53.154;8.202;2022-10-16T13:18:38;2.60;;;0.50;;
26151;SDS011;13907;53.154;8.202;2022-10-16T13:21:11;3.95;;;0.65;;
26151;SDS011;13907;53.154;8.202;2022-10-16T13:23:45;2.17;;;0.88;;
26151;SDS011;13907;53.154;8.202;2022-10-16T13:26:16;1.25;;;0.93;;
26151;SDS011;13907;53.154;8.202;2022-10-16T13:28:45;4.32;;;0.88;;
26151;SDS011;13907;53.154;8.202;2022-10-16T13:31:14;3.33;;;1.23;;
26151;SDS011;13907;53.154;8.202;2022-10-16T13:33:45;4.47;;;0.50;;
26151;SDS011;13907;53.154;8.202;2022-10-16T13:36:23;0.50;;;0.40;;
26151;SDS011;13907;53.154;8.202;2022-10-16T13:38:58;0.95;;;0.50;;
26151;SDS011;13907;53.154;8.202;2022-10-16T13:41:26;4.30;;;0.98;;
26151;SDS011;13907;53.154;8.202;2022-10-16T13:43:53;3.83;;;1.15;;
26151;SDS011;13907;53.154;8.202;2022-10-16T13:46:22;2.63;;;0.55;;
26151;SDS011;13907;53.154;8.202;2022-10-16T13:49:02;1.73;;;0.57;;
26151;SDS011;13907;53.154;8.202;2022-10-16T13:51:29;2.63;;;0.52;;
26151;SDS011;13907;53.154;8.202;2022-10-16T13:53:57;0.77;;;0.50;;
26151;SDS011;13907;53.154;8.202;2022-10-16T13:56:26;1.45;;;0.70;;
26151;SDS011;13907;53.154;8.202;2022-10-16T13:59:00;2.35;;;0.65;;
26151;SDS011;13907;53.154;8.202;2022-10-16T14:01:27;1.48;;;0.40;;
26151;SDS011;13907;53.154;8.202;2022-10-16T14:04:01;2.20;;;0.50;;
26151;SDS011;13907;53.154;8.202;2022-10-16T14:06:29;4.10;;;0.40;;
26151;SDS011;13907;53.154;8.202;2022-10-16T14:08:58;1.25;;;0.40;;
26151;SDS011;13907;53.154;8.202;2022-10-16T14:11:26;1.80;;;0.68;;
26151;SDS011;13907;53.154;8.202;2022-10-16T14:13:53;0.38;;;0.38;;
26151;SDS011;13907;53.154;8.202;2022-10-16T14:16:22;0.95;;;0.40;;
26151;SDS011;13907;53.154;8.202;2022-10-16T14:18:54;2.05;;;0.70;;
26151;SDS011;13907;53.154;8.202;2022-10-16T14:21:23;1.98;;;0.32;;
26151;SDS011;13907;53.154;8.202;2022-10-16T14:23:51;2.60;;;0.57;;
26151;SDS011;13907;53.154;8.202;2022-10-16T14:26:19;1.00;;;0.30;;
26151;SDS011;13907;53.154;8.202;2022-10-16T14:28:47;0.40;;;0.20;;
26151;SDS011;13907;53.154;8.202;2022-10-16T14:31:26;2.28;;;0.40;;
26151;SDS011;13907;53.154;8.202;2022-10-16T14:33:53;0.28;;;0.28;;
26151;SDS011;13907;53.154;8.202;2022-10-16T14:36:20;5.15;;;0.38;;
26151;SDS011;13907;53.154;8.202;2022-10-16T14:38:51;2.58;;;0.50;;
26151;SDS011;13907;53.154;8.202;2022-10-16T14:41:20;2.67;;;0.70;;
26151;SDS011;13907;53.154;8.202;2022-10-16T14:43:49;0.45;;;0.30;;
26151;SDS011;13907;53.154;8.202;2022-10-16T14:46:17;2.03;;;0.77;;
26151;SDS011;13907;53.154;8.202;2022-10-16T14:48:46;2.60;;;0.60;;
26151;SDS011;13907;53.154;8.202;2022-10-16T14:51:15;0.30;;;0.30;;
26151;SDS011;13907;53.154;8.202;2022-10-16T14:53:42;3.25;;;0.63;;
26151;SDS011;13907;53.154;8.202;2022-10-16T14:56:14;3.25;;;0.63;;
26151;SDS011;13907;53.154;8.202;2022-10-16T14:58:42;2.63;;;0.55;;
26151;SDS011;13907;53.154;8.202;2022-10-16T15:01:10;2.17;;;0.47;;
26151;SDS011;13907;53.154;8.202;2022-10-16T15:03:38;4.00;;;0.82;;
26151;SDS011;13907;53.154;8.202;2022-10-16T15:06:08;3.25;;;0.80;;